Rosemont, Pennsylvania
Current Conditions -  °F | °C
As of 12:15 AM on Thursday 27 Nov 2014 (Local Time) from KLOM Reporting Station
Clear Clear  
Wind Chill: 32°   Ceiling: Unl
Heat Index: 36°   Visibility: 10mi
Dew Point: 32°   Wind: 5mph
Humidity: 87%   Direction: 290°WNW
Pressure: 29.9"   Gusts: NA
Location:  40.0226°N, 75.3301°W
Report Text: KLOM 270515Z AUTO 29004KT 10SM CLR 02/00 A2990 RMK AO1
Loading
Personal Weather Stations






























Interactive Weather Map New forecast layout! Learn more

10-Day Weather Forecast

Advertisements
Track Severe Weather on mobile